sensor_id;sensor_type;location;lat;lon;timestamp;P1;durP1;ratioP1;P2;durP2;ratioP2
21777;SDS011;11050;52.222;20.916;2023-06-14T00:01:50;11.00;;;8.40;;
21777;SDS011;11050;52.222;20.916;2023-06-14T00:04:16;10.40;;;8.43;;
21777;SDS011;11050;52.222;20.916;2023-06-14T00:06:42;10.23;;;8.38;;
21777;SDS011;11050;52.222;20.916;2023-06-14T00:09:10;10.45;;;8.15;;
21777;SDS011;11050;52.222;20.916;2023-06-14T00:11:39;11.00;;;8.38;;
21777;SDS011;11050;52.222;20.916;2023-06-14T00:14:06;11.80;;;7.80;;
21777;SDS011;11050;52.222;20.916;2023-06-14T00:16:32;12.52;;;8.13;;
21777;SDS011;11050;52.222;20.916;2023-06-14T00:19:00;9.68;;;8.02;;
21777;SDS011;11050;52.222;20.916;2023-06-14T00:21:28;9.73;;;8.10;;
21777;SDS011;11050;52.222;20.916;2023-06-14T00:23:55;10.10;;;8.40;;
21777;SDS011;11050;52.222;20.916;2023-06-14T00:26:23;13.10;;;8.10;;
21777;SDS011;11050;52.222;20.916;2023-06-14T00:28:48;10.85;;;8.20;;
21777;SDS011;11050;52.222;20.916;2023-06-14T00:31:14;11.13;;;9.07;;
21777;SDS011;11050;52.222;20.916;2023-06-14T00:33:40;12.23;;;7.95;;
21777;SDS011;11050;52.222;20.916;2023-06-14T00:36:05;12.15;;;8.85;;
21777;SDS011;11050;52.222;20.916;2023-06-14T00:38:31;10.80;;;8.55;;
21777;SDS011;11050;52.222;20.916;2023-06-14T00:40:57;11.38;;;8.30;;
21777;SDS011;11050;52.222;20.916;2023-06-14T00:43:22;12.82;;;8.60;;
21777;SDS011;11050;52.222;20.916;2023-06-14T00:45:48;11.52;;;8.48;;
21777;SDS011;11050;52.222;20.916;2023-06-14T00:48:16;13.80;;;9.32;;
21777;SDS011;11050;52.222;20.916;2023-06-14T00:50:42;11.57;;;9.38;;
21777;SDS011;11050;52.222;20.916;2023-06-14T00:53:13;10.27;;;8.10;;
21777;SDS011;11050;52.222;20.916;2023-06-14T00:55:42;10.75;;;8.60;;
21777;SDS011;11050;52.222;20.916;2023-06-14T00:58:09;11.15;;;8.57;;
21777;SDS011;11050;52.222;20.916;2023-06-14T01:00:36;10.02;;;7.85;;
21777;SDS011;11050;52.222;20.916;2023-06-14T01:03:02;11.27;;;8.00;;
21777;SDS011;11050;52.222;20.916;2023-06-14T01:05:28;10.23;;;7.78;;
21777;SDS011;11050;52.222;20.916;2023-06-14T01:08:15;13.80;;;8.38;;
21777;SDS011;11050;52.222;20.916;2023-06-14T01:10:56;12.05;;;7.95;;
21777;SDS011;11050;52.222;20.916;2023-06-14T01:14:06;11.25;;;7.55;;
21777;SDS011;11050;52.222;20.916;2023-06-14T01:16:35;9.82;;;7.47;;
21777;SDS011;11050;52.222;20.916;2023-06-14T01:19:04;12.63;;;7.80;;
21777;SDS011;11050;52.222;20.916;2023-06-14T01:21:31;8.80;;;7.43;;
21777;SDS011;11050;52.222;20.916;2023-06-14T01:24:06;9.32;;;7.22;;
21777;SDS011;11050;52.222;20.916;2023-06-14T01:26:34;9.15;;;7.60;;
21777;SDS011;11050;52.222;20.916;2023-06-14T01:29:02;9.68;;;7.97;;
21777;SDS011;11050;52.222;20.916;2023-06-14T01:31:29;10.00;;;7.72;;
21777;SDS011;11050;52.222;20.916;2023-06-14T01:34:06;8.50;;;7.25;;
21777;SDS011;11050;52.222;20.916;2023-06-14T01:36:33;8.82;;;7.88;;
21777;SDS011;11050;52.222;20.916;2023-06-14T01:39:04;9.52;;;7.38;;
21777;SDS011;11050;52.222;20.916;2023-06-14T01:41:31;12.18;;;7.97;;
21777;SDS011;11050;52.222;20.916;2023-06-14T01:43:58;13.23;;;7.68;;
21777;SDS011;11050;52.222;20.916;2023-06-14T01:46:25;9.32;;;7.20;;
21777;SDS011;11050;52.222;20.916;2023-06-14T01:48:51;9.27;;;7.20;;
21777;SDS011;11050;52.222;20.916;2023-06-14T01:51:17;11.50;;;8.10;;
21777;SDS011;11050;52.222;20.916;2023-06-14T01:53:42;11.20;;;7.28;;
21777;SDS011;11050;52.222;20.916;2023-06-14T01:56:08;10.68;;;7.60;;
21777;SDS011;11050;52.222;20.916;2023-06-14T01:58:34;9.60;;;8.07;;
21777;SDS011;11050;52.222;20.916;2023-06-14T02:01:00;9.18;;;7.75;;
21777;SDS011;11050;52.222;20.916;2023-06-14T02:03:27;11.77;;;8.35;;
21777;SDS011;11050;52.222;20.916;2023-06-14T02:05:52;10.18;;;8.77;;
21777;SDS011;11050;52.222;20.916;2023-06-14T02:08:19;13.85;;;8.73;;
21777;SDS011;11050;52.222;20.916;2023-06-14T02:10:45;10.52;;;7.78;;
21777;SDS011;11050;52.222;20.916;2023-06-14T02:13:10;8.95;;;7.18;;
21777;SDS011;11050;52.222;20.916;2023-06-14T02:15:36;10.07;;;8.07;;
21777;SDS011;11050;52.222;20.916;2023-06-14T02:18:02;12.40;;;8.75;;
21777;SDS011;11050;52.222;20.916;2023-06-14T02:20:28;10.30;;;8.65;;
21777;SDS011;11050;52.222;20.916;2023-06-14T02:22:55;12.75;;;9.30;;
21777;SDS011;11050;52.222;20.916;2023-06-14T02:25:21;11.77;;;8.80;;
21777;SDS011;11050;52.222;20.916;2023-06-14T02:27:46;11.23;;;8.95;;
21777;SDS011;11050;52.222;20.916;2023-06-14T02:30:12;9.45;;;8.27;;
21777;SDS011;11050;52.222;20.916;2023-06-14T02:32:38;11.63;;;8.65;;
21777;SDS011;11050;52.222;20.916;2023-06-14T02:35:05;10.57;;;8.88;;
21777;SDS011;11050;52.222;20.916;2023-06-14T02:37:32;12.02;;;8.65;;
21777;SDS011;11050;52.222;20.916;2023-06-14T02:39:58;11.43;;;9.45;;
21777;SDS011;11050;52.222;20.916;2023-06-14T02:42:24;12.30;;;9.23;;
21777;SDS011;11050;52.222;20.916;2023-06-14T02:44:50;14.23;;;8.82;;
21777;SDS011;11050;52.222;20.916;2023-06-14T02:47:17;12.18;;;9.80;;
21777;SDS011;11050;52.222;20.916;2023-06-14T02:49:43;14.93;;;9.70;;
21777;SDS011;11050;52.222;20.916;2023-06-14T02:52:11;13.57;;;8.88;;
21777;SDS011;11050;52.222;20.916;2023-06-14T02:54:37;12.25;;;9.40;;
21777;SDS011;11050;52.222;20.916;2023-06-14T02:57:03;11.70;;;9.27;;
21777;SDS011;11050;52.222;20.916;2023-06-14T02:59:29;13.23;;;9.85;;
21777;SDS011;11050;52.222;20.916;2023-06-14T03:01:54;10.75;;;9.10;;
21777;SDS011;11050;52.222;20.916;2023-06-14T03:04:20;12.23;;;9.57;;
21777;SDS011;11050;52.222;20.916;2023-06-14T03:06:46;10.63;;;9.20;;
21777;SDS011;11050;52.222;20.916;2023-06-14T03:09:15;13.05;;;9.55;;
21777;SDS011;11050;52.222;20.916;2023-06-14T03:11:41;12.07;;;9.48;;
21777;SDS011;11050;52.222;20.916;2023-06-14T03:14:07;12.98;;;9.50;;
21777;SDS011;11050;52.222;20.916;2023-06-14T03:16:33;11.00;;;9.75;;
21777;SDS011;11050;52.222;20.916;2023-06-14T03:18:59;12.15;;;9.48;;
21777;SDS011;11050;52.222;20.916;2023-06-14T03:21:25;13.82;;;9.68;;
21777;SDS011;11050;52.222;20.916;2023-06-14T03:23:51;12.70;;;9.57;;
21777;SDS011;11050;52.222;20.916;2023-06-14T03:26:17;12.88;;;10.20;;
21777;SDS011;11050;52.222;20.916;2023-06-14T03:28:44;10.35;;;9.25;;
21777;SDS011;11050;52.222;20.916;2023-06-14T03:31:11;12.52;;;9.40;;
21777;SDS011;11050;52.222;20.916;2023-06-14T03:33:37;15.82;;;10.07;;
21777;SDS011;11050;52.222;20.916;2023-06-14T03:36:04;13.23;;;9.68;;
21777;SDS011;11050;52.222;20.916;2023-06-14T03:38:34;10.90;;;8.90;;
21777;SDS011;11050;52.222;20.916;2023-06-14T03:41:00;13.75;;;9.30;;
21777;SDS011;11050;52.222;20.916;2023-06-14T03:43:26;12.48;;;9.35;;
21777;SDS011;11050;52.222;20.916;2023-06-14T03:45:52;12.30;;;9.00;;
21777;SDS011;11050;52.222;20.916;2023-06-14T03:48:18;12.45;;;9.20;;
21777;SDS011;11050;52.222;20.916;2023-06-14T03:50:44;10.30;;;8.63;;
21777;SDS011;11050;52.222;20.916;2023-06-14T03:53:10;9.68;;;8.52;;
21777;SDS011;11050;52.222;20.916;2023-06-14T03:55:36;14.20;;;9.00;;
21777;SDS011;11050;52.222;20.916;2023-06-14T03:58:03;11.95;;;8.75;;
21777;SDS011;11050;52.222;20.916;2023-06-14T04:00:28;12.93;;;9.35;;
21777;SDS011;11050;52.222;20.916;2023-06-14T04:02:55;9.90;;;8.82;;
21777;SDS011;11050;52.222;20.916;2023-06-14T04:05:20;11.02;;;9.30;;
21777;SDS011;11050;52.222;20.916;2023-06-14T04:07:46;11.27;;;9.15;;
21777;SDS011;11050;52.222;20.916;2023-06-14T04:10:13;10.70;;;8.55;;
21777;SDS011;11050;52.222;20.916;2023-06-14T04:12:41;10.38;;;8.88;;
21777;SDS011;11050;52.222;20.916;2023-06-14T04:15:08;10.07;;;9.00;;
21777;SDS011;11050;52.222;20.916;2023-06-14T04:17:34;10.55;;;9.40;;
21777;SDS011;11050;52.222;20.916;2023-06-14T04:20:02;13.05;;;9.18;;
21777;SDS011;11050;52.222;20.916;2023-06-14T04:22:30;12.40;;;9.20;;
21777;SDS011;11050;52.222;20.916;2023-06-14T04:24:56;11.75;;;9.70;;
21777;SDS011;11050;52.222;20.916;2023-06-14T04:27:22;12.70;;;8.82;;
21777;SDS011;11050;52.222;20.916;2023-06-14T04:29:51;10.40;;;8.48;;
21777;SDS011;11050;52.222;20.916;2023-06-14T04:32:22;10.10;;;8.77;;
21777;SDS011;11050;52.222;20.916;2023-06-14T04:34:51;10.43;;;8.30;;
21777;SDS011;11050;52.222;20.916;2023-06-14T04:37:24;9.77;;;8.75;;
21777;SDS011;11050;52.222;20.916;2023-06-14T04:39:53;12.80;;;8.10;;
21777;SDS011;11050;52.222;20.916;2023-06-14T04:42:20;10.82;;;8.50;;
21777;SDS011;11050;52.222;20.916;2023-06-14T04:44:56;11.45;;;8.57;;
21777;SDS011;11050;52.222;20.916;2023-06-14T04:47:22;11.23;;;8.77;;
21777;SDS011;11050;52.222;20.916;2023-06-14T04:49:54;11.95;;;8.20;;
21777;SDS011;11050;52.222;20.916;2023-06-14T04:52:21;10.60;;;8.88;;
21777;SDS011;11050;52.222;20.916;2023-06-14T04:54:48;10.05;;;8.48;;
21777;SDS011;11050;52.222;20.916;2023-06-14T04:57:13;10.25;;;8.30;;
21777;SDS011;11050;52.222;20.916;2023-06-14T04:59:42;12.57;;;8.63;;
21777;SDS011;11050;52.222;20.916;2023-06-14T05:02:09;11.00;;;8.93;;
21777;SDS011;11050;52.222;20.916;2023-06-14T05:04:36;8.93;;;8.02;;
21777;SDS011;11050;52.222;20.916;2023-06-14T05:07:08;10.50;;;9.02;;
21777;SDS011;11050;52.222;20.916;2023-06-14T05:09:37;10.68;;;8.52;;
21777;SDS011;11050;52.222;20.916;2023-06-14T05:12:03;11.88;;;9.27;;
21777;SDS011;11050;52.222;20.916;2023-06-14T05:14:29;10.40;;;9.27;;
21777;SDS011;11050;52.222;20.916;2023-06-14T05:16:55;10.75;;;9.27;;
21777;SDS011;11050;52.222;20.916;2023-06-14T05:19:20;11.98;;;9.00;;
21777;SDS011;11050;52.222;20.916;2023-06-14T05:21:47;13.60;;;8.75;;
21777;SDS011;11050;52.222;20.916;2023-06-14T05:24:13;11.55;;;8.77;;
21777;SDS011;11050;52.222;20.916;2023-06-14T05:26:40;9.43;;;8.43;;
21777;SDS011;11050;52.222;20.916;2023-06-14T05:29:05;11.20;;;8.90;;
21777;SDS011;11050;52.222;20.916;2023-06-14T05:31:31;11.85;;;8.90;;
21777;SDS011;11050;52.222;20.916;2023-06-14T05:33:57;11.88;;;9.20;;
21777;SDS011;11050;52.222;20.916;2023-06-14T05:36:23;14.10;;;9.82;;
21777;SDS011;11050;52.222;20.916;2023-06-14T05:38:49;10.77;;;8.52;;
21777;SDS011;11050;52.222;20.916;2023-06-14T05:41:16;12.73;;;9.25;;
21777;SDS011;11050;52.222;20.916;2023-06-14T05:43:42;9.55;;;8.57;;
21777;SDS011;11050;52.222;20.916;2023-06-14T05:46:07;10.18;;;8.95;;
21777;SDS011;11050;52.222;20.916;2023-06-14T05:48:33;12.27;;;9.30;;
21777;SDS011;11050;52.222;20.916;2023-06-14T05:50:58;11.63;;;8.93;;
21777;SDS011;11050;52.222;20.916;2023-06-14T05:53:24;12.25;;;9.73;;
21777;SDS011;11050;52.222;20.916;2023-06-14T05:55:50;10.27;;;9.27;;
21777;SDS011;11050;52.222;20.916;2023-06-14T05:58:20;11.38;;;8.65;;
21777;SDS011;11050;52.222;20.916;2023-06-14T06:00:46;11.65;;;9.18;;
21777;SDS011;11050;52.222;20.916;2023-06-14T06:03:12;12.07;;;8.40;;
21777;SDS011;11050;52.222;20.916;2023-06-14T06:05:38;15.68;;;8.90;;
21777;SDS011;11050;52.222;20.916;2023-06-14T06:08:04;11.57;;;9.43;;
21777;SDS011;11050;52.222;20.916;2023-06-14T06:10:30;11.25;;;9.40;;
21777;SDS011;11050;52.222;20.916;2023-06-14T06:12:56;10.50;;;9.02;;
21777;SDS011;11050;52.222;20.916;2023-06-14T06:15:22;24.33;;;10.65;;
21777;SDS011;11050;52.222;20.916;2023-06-14T06:17:47;13.30;;;9.02;;
21777;SDS011;11050;52.222;20.916;2023-06-14T06:20:13;18.45;;;10.43;;
21777;SDS011;11050;52.222;20.916;2023-06-14T06:22:39;15.05;;;9.05;;
21777;SDS011;11050;52.222;20.916;2023-06-14T06:25:04;10.57;;;8.88;;
21777;SDS011;11050;52.222;20.916;2023-06-14T06:27:31;10.93;;;8.90;;
21777;SDS011;11050;52.222;20.916;2023-06-14T06:29:57;12.63;;;8.27;;
21777;SDS011;11050;52.222;20.916;2023-06-14T06:32:23;9.73;;;8.48;;
21777;SDS011;11050;52.222;20.916;2023-06-14T06:34:49;9.55;;;7.88;;
21777;SDS011;11050;52.222;20.916;2023-06-14T06:37:15;10.60;;;7.45;;
21777;SDS011;11050;52.222;20.916;2023-06-14T06:39:41;7.32;;;6.63;;
21777;SDS011;11050;52.222;20.916;2023-06-14T06:42:06;8.65;;;7.22;;
21777;SDS011;11050;52.222;20.916;2023-06-14T06:44:32;9.07;;;7.00;;
21777;SDS011;11050;52.222;20.916;2023-06-14T06:46:58;11.45;;;7.13;;
21777;SDS011;11050;52.222;20.916;2023-06-14T06:49:24;13.55;;;7.72;;
21777;SDS011;11050;52.222;20.916;2023-06-14T06:51:59;9.88;;;7.05;;
21777;SDS011;11050;52.222;20.916;2023-06-14T06:54:27;8.80;;;7.32;;
21777;SDS011;11050;52.222;20.916;2023-06-14T06:56:53;9.55;;;7.63;;
21777;SDS011;11050;52.222;20.916;2023-06-14T06:59:19;11.05;;;7.53;;
21777;SDS011;11050;52.222;20.916;2023-06-14T07:01:45;11.77;;;6.78;;
21777;SDS011;11050;52.222;20.916;2023-06-14T07:04:12;8.43;;;7.03;;
21777;SDS011;11050;52.222;20.916;2023-06-14T07:06:38;10.73;;;7.63;;
21777;SDS011;11050;52.222;20.916;2023-06-14T07:09:04;9.65;;;7.13;;
21777;SDS011;11050;52.222;20.916;2023-06-14T07:11:33;10.30;;;7.57;;
21777;SDS011;11050;52.222;20.916;2023-06-14T07:13:59;9.77;;;7.72;;
21777;SDS011;11050;52.222;20.916;2023-06-14T07:16:25;9.70;;;8.40;;
21777;SDS011;11050;52.222;20.916;2023-06-14T07:18:51;10.65;;;8.27;;
21777;SDS011;11050;52.222;20.916;2023-06-14T07:21:17;9.55;;;8.30;;
21777;SDS011;11050;52.222;20.916;2023-06-14T07:23:43;11.15;;;7.28;;
21777;SDS011;11050;52.222;20.916;2023-06-14T07:26:09;10.13;;;7.60;;
21777;SDS011;11050;52.222;20.916;2023-06-14T07:28:34;9.77;;;8.77;;
21777;SDS011;11050;52.222;20.916;2023-06-14T07:31:00;11.15;;;8.43;;
21777;SDS011;11050;52.222;20.916;2023-06-14T07:33:27;10.52;;;8.35;;
21777;SDS011;11050;52.222;20.916;2023-06-14T07:35:53;10.77;;;8.40;;
21777;SDS011;11050;52.222;20.916;2023-06-14T07:38:18;11.93;;;8.43;;
21777;SDS011;11050;52.222;20.916;2023-06-14T07:40:44;11.55;;;9.35;;
21777;SDS011;11050;52.222;20.916;2023-06-14T07:43:10;10.77;;;8.10;;
21777;SDS011;11050;52.222;20.916;2023-06-14T07:45:36;11.32;;;8.65;;
21777;SDS011;11050;52.222;20.916;2023-06-14T07:48:03;12.30;;;7.25;;
21777;SDS011;11050;52.222;20.916;2023-06-14T07:50:29;10.18;;;7.97;;
21777;SDS011;11050;52.222;20.916;2023-06-14T07:52:55;10.63;;;8.02;;
21777;SDS011;11050;52.222;20.916;2023-06-14T07:55:21;10.85;;;6.75;;
21777;SDS011;11050;52.222;20.916;2023-06-14T07:57:47;10.48;;;7.05;;
21777;SDS011;11050;52.222;20.916;2023-06-14T08:00:12;8.82;;;6.70;;
21777;SDS011;11050;52.222;20.916;2023-06-14T08:02:43;7.57;;;6.78;;
21777;SDS011;11050;52.222;20.916;2023-06-14T08:05:12;10.68;;;7.05;;
21777;SDS011;11050;52.222;20.916;2023-06-14T08:07:38;11.70;;;7.43;;
21777;SDS011;11050;52.222;20.916;2023-06-14T08:10:05;10.85;;;6.88;;
21777;SDS011;11050;52.222;20.916;2023-06-14T08:12:32;7.22;;;6.50;;
21777;SDS011;11050;52.222;20.916;2023-06-14T08:14:59;8.48;;;6.88;;
21777;SDS011;11050;52.222;20.916;2023-06-14T08:17:25;11.15;;;7.32;;
21777;SDS011;11050;52.222;20.916;2023-06-14T08:19:51;12.80;;;6.90;;
21777;SDS011;11050;52.222;20.916;2023-06-14T08:22:19;10.48;;;6.20;;
21777;SDS011;11050;52.222;20.916;2023-06-14T08:24:46;8.88;;;6.18;;
21777;SDS011;11050;52.222;20.916;2023-06-14T08:27:12;7.80;;;6.40;;
21777;SDS011;11050;52.222;20.916;2023-06-14T08:29:38;12.13;;;6.65;;
21777;SDS011;11050;52.222;20.916;2023-06-14T08:32:05;11.80;;;7.38;;
21777;SDS011;11050;52.222;20.916;2023-06-14T08:34:31;11.48;;;6.72;;
21777;SDS011;11050;52.222;20.916;2023-06-14T08:36:57;8.93;;;6.45;;
21777;SDS011;11050;52.222;20.916;2023-06-14T08:39:23;8.30;;;7.15;;
21777;SDS011;11050;52.222;20.916;2023-06-14T08:41:48;9.75;;;6.68;;
21777;SDS011;11050;52.222;20.916;2023-06-14T08:44:17;7.47;;;6.60;;
21777;SDS011;11050;52.222;20.916;2023-06-14T08:46:43;9.70;;;7.28;;
21777;SDS011;11050;52.222;20.916;2023-06-14T08:49:12;9.70;;;6.97;;
21777;SDS011;11050;52.222;20.916;2023-06-14T08:51:39;11.68;;;7.22;;
21777;SDS011;11050;52.222;20.916;2023-06-14T08:54:05;9.30;;;6.68;;
21777;SDS011;11050;52.222;20.916;2023-06-14T08:56:32;11.15;;;6.40;;
21777;SDS011;11050;52.222;20.916;2023-06-14T08:58:59;12.25;;;7.38;;
21777;SDS011;11050;52.222;20.916;2023-06-14T09:01:28;13.85;;;7.45;;
21777;SDS011;11050;52.222;20.916;2023-06-14T09:03:59;12.23;;;6.90;;
21777;SDS011;11050;52.222;20.916;2023-06-14T09:06:27;11.48;;;6.90;;
21777;SDS011;11050;52.222;20.916;2023-06-14T09:08:54;7.60;;;6.80;;
21777;SDS011;11050;52.222;20.916;2023-06-14T09:11:23;9.20;;;6.40;;
21777;SDS011;11050;52.222;20.916;2023-06-14T09:13:51;7.53;;;5.82;;
21777;SDS011;11050;52.222;20.916;2023-06-14T09:16:16;8.85;;;5.65;;
21777;SDS011;11050;52.222;20.916;2023-06-14T09:18:43;8.10;;;5.75;;
21777;SDS011;11050;52.222;20.916;2023-06-14T09:21:14;6.15;;;5.47;;
21777;SDS011;11050;52.222;20.916;2023-06-14T09:23:46;8.32;;;6.05;;
21777;SDS011;11050;52.222;20.916;2023-06-14T09:26:22;8.98;;;6.22;;
21777;SDS011;11050;52.222;20.916;2023-06-14T09:28:48;7.70;;;6.22;;
21777;SDS011;11050;52.222;20.916;2023-06-14T09:31:19;9.27;;;6.82;;
21777;SDS011;11050;52.222;20.916;2023-06-14T09:33:46;20.90;;;7.10;;
21777;SDS011;11050;52.222;20.916;2023-06-14T09:36:21;10.48;;;7.32;;
21777;SDS011;11050;52.222;20.916;2023-06-14T09:39:21;11.60;;;7.40;;
21777;SDS011;11050;52.222;20.916;2023-06-14T09:41:43;7.35;;;6.57;;
21777;SDS011;11050;52.222;20.916;2023-06-14T09:44:09;8.80;;;6.90;;
21777;SDS011;11050;52.222;20.916;2023-06-14T09:46:37;11.18;;;6.75;;
21777;SDS011;11050;52.222;20.916;2023-06-14T09:49:04;11.07;;;7.65;;
21777;SDS011;11050;52.222;20.916;2023-06-14T09:51:31;10.40;;;6.97;;
21777;SDS011;11050;52.222;20.916;2023-06-14T09:54:00;7.07;;;6.47;;
21777;SDS011;11050;52.222;20.916;2023-06-14T09:56:32;7.93;;;6.70;;
21777;SDS011;11050;52.222;20.916;2023-06-14T09:59:04;8.80;;;6.95;;
21777;SDS011;11050;52.222;20.916;2023-06-14T10:01:32;8.35;;;6.43;;
21777;SDS011;11050;52.222;20.916;2023-06-14T10:04:03;7.90;;;6.97;;
21777;SDS011;11050;52.222;20.916;2023-06-14T10:06:31;10.05;;;6.60;;
21777;SDS011;11050;52.222;20.916;2023-06-14T10:09:02;13.00;;;5.90;;
21777;SDS011;11050;52.222;20.916;2023-06-14T10:11:30;11.10;;;5.63;;
21777;SDS011;11050;52.222;20.916;2023-06-14T10:13:57;7.82;;;5.07;;
21777;SDS011;11050;52.222;20.916;2023-06-14T10:19:44;6.75;;;4.70;;
21777;SDS011;11050;52.222;20.916;2023-06-14T10:22:35;6.25;;;4.93;;
21777;SDS011;11050;52.222;20.916;2023-06-14T10:25:13;8.60;;;5.30;;
21777;SDS011;11050;52.222;20.916;2023-06-14T10:27:52;6.85;;;5.00;;
21777;SDS011;11050;52.222;20.916;2023-06-14T10:30:17;6.57;;;5.30;;
21777;SDS011;11050;52.222;20.916;2023-06-14T10:33:03;11.05;;;5.32;;
21777;SDS011;11050;52.222;20.916;2023-06-14T10:35:33;8.13;;;5.22;;
21777;SDS011;11050;52.222;20.916;2023-06-14T10:38:08;8.38;;;4.65;;
21777;SDS011;11050;52.222;20.916;2023-06-14T10:40:37;7.57;;;4.80;;
21777;SDS011;11050;52.222;20.916;2023-06-14T10:43:22;8.88;;;5.28;;
21777;SDS011;11050;52.222;20.916;2023-06-14T10:48:42;7.03;;;5.13;;
21777;SDS011;11050;52.222;20.916;2023-06-14T10:51:19;7.50;;;4.70;;
21777;SDS011;11050;52.222;20.916;2023-06-14T10:53:46;10.00;;;5.32;;
21777;SDS011;11050;52.222;20.916;2023-06-14T10:56:23;5.50;;;4.28;;
21777;SDS011;11050;52.222;20.916;2023-06-14T10:58:56;8.70;;;4.40;;
21777;SDS011;11050;52.222;20.916;2023-06-14T11:01:58;4.95;;;4.28;;
21777;SDS011;11050;52.222;20.916;2023-06-14T11:04:48;10.50;;;4.75;;
21777;SDS011;11050;52.222;20.916;2023-06-14T11:07:24;7.55;;;4.50;;
21777;SDS011;11050;52.222;20.916;2023-06-14T11:10:39;8.15;;;3.90;;
21777;SDS011;11050;52.222;20.916;2023-06-14T11:13:08;13.65;;;4.85;;
21777;SDS011;11050;52.222;20.916;2023-06-14T11:15:35;5.00;;;3.53;;
21777;SDS011;11050;52.222;20.916;2023-06-14T11:18:04;8.02;;;3.60;;
21777;SDS011;11050;52.222;20.916;2023-06-14T11:20:36;7.35;;;3.63;;
21777;SDS011;11050;52.222;20.916;2023-06-14T11:23:03;5.80;;;3.17;;
21777;SDS011;11050;52.222;20.916;2023-06-14T11:25:29;6.38;;;3.80;;
21777;SDS011;11050;52.222;20.916;2023-06-14T11:27:55;5.63;;;4.15;;
21777;SDS011;11050;52.222;20.916;2023-06-14T11:30:22;4.43;;;4.00;;
21777;SDS011;11050;52.222;20.916;2023-06-14T11:32:49;8.70;;;3.95;;
21777;SDS011;11050;52.222;20.916;2023-06-14T11:35:17;4.82;;;3.92;;
21777;SDS011;11050;52.222;20.916;2023-06-14T11:37:44;9.13;;;4.15;;
21777;SDS011;11050;52.222;20.916;2023-06-14T11:40:10;5.57;;;3.88;;
21777;SDS011;11050;52.222;20.916;2023-06-14T11:42:37;5.03;;;4.38;;
21777;SDS011;11050;52.222;20.916;2023-06-14T11:45:09;5.57;;;5.07;;
21777;SDS011;11050;52.222;20.916;2023-06-14T11:47:37;7.90;;;4.32;;
21777;SDS011;11050;52.222;20.916;2023-06-14T11:50:05;7.95;;;4.50;;
21777;SDS011;11050;52.222;20.916;2023-06-14T11:52:36;5.57;;;4.47;;
21777;SDS011;11050;52.222;20.916;2023-06-14T11:55:03;6.03;;;3.97;;
21777;SDS011;11050;52.222;20.916;2023-06-14T11:57:30;4.45;;;3.50;;
21777;SDS011;11050;52.222;20.916;2023-06-14T12:00:02;6.18;;;3.67;;
21777;SDS011;11050;52.222;20.916;2023-06-14T12:02:36;9.32;;;3.05;;
21777;SDS011;11050;52.222;20.916;2023-06-14T12:05:05;5.30;;;3.72;;
21777;SDS011;11050;52.222;20.916;2023-06-14T12:07:35;7.65;;;3.42;;
21777;SDS011;11050;52.222;20.916;2023-06-14T12:10:05;3.88;;;3.30;;
21777;SDS011;11050;52.222;20.916;2023-06-14T12:12:38;3.60;;;3.10;;
21777;SDS011;11050;52.222;20.916;2023-06-14T12:15:08;5.68;;;3.35;;
21777;SDS011;11050;52.222;20.916;2023-06-14T12:17:38;6.60;;;3.13;;
21777;SDS011;11050;52.222;20.916;2023-06-14T12:20:08;4.43;;;3.30;;
21777;SDS011;11050;52.222;20.916;2023-06-14T12:22:57;4.68;;;3.30;;
21777;SDS011;11050;52.222;20.916;2023-06-14T12:25:32;6.00;;;3.03;;
21777;SDS011;11050;52.222;20.916;2023-06-14T12:28:05;3.95;;;3.20;;
21777;SDS011;11050;52.222;20.916;2023-06-14T12:30:33;5.22;;;2.67;;
21777;SDS011;11050;52.222;20.916;2023-06-14T12:33:03;4.40;;;2.80;;
21777;SDS011;11050;52.222;20.916;2023-06-14T12:35:30;4.75;;;2.70;;
21777;SDS011;11050;52.222;20.916;2023-06-14T12:37:56;4.72;;;2.85;;
21777;SDS011;11050;52.222;20.916;2023-06-14T12:40:22;8.48;;;3.03;;
21777;SDS011;11050;52.222;20.916;2023-06-14T12:42:48;7.28;;;2.92;;
21777;SDS011;11050;52.222;20.916;2023-06-14T12:45:14;3.65;;;3.00;;
21777;SDS011;11050;52.222;20.916;2023-06-14T12:47:40;8.20;;;3.08;;
21777;SDS011;11050;52.222;20.916;2023-06-14T12:50:07;3.60;;;2.85;;
21777;SDS011;11050;52.222;20.916;2023-06-14T12:52:33;3.88;;;2.60;;
21777;SDS011;11050;52.222;20.916;2023-06-14T12:55:04;7.97;;;3.50;;
21777;SDS011;11050;52.222;20.916;2023-06-14T12:57:31;4.00;;;3.05;;
21777;SDS011;11050;52.222;20.916;2023-06-14T12:59:57;6.82;;;3.30;;
21777;SDS011;11050;52.222;20.916;2023-06-14T13:02:25;3.80;;;3.40;;
21777;SDS011;11050;52.222;20.916;2023-06-14T13:04:51;3.72;;;3.10;;
21777;SDS011;11050;52.222;20.916;2023-06-14T13:07:17;3.28;;;2.70;;
21777;SDS011;11050;52.222;20.916;2023-06-14T13:09:43;3.97;;;3.30;;
21777;SDS011;11050;52.222;20.916;2023-06-14T13:12:12;3.63;;;3.30;;
21777;SDS011;11050;52.222;20.916;2023-06-14T13:14:38;3.78;;;2.95;;
21777;SDS011;11050;52.222;20.916;2023-06-14T13:17:07;4.65;;;3.15;;
21777;SDS011;11050;52.222;20.916;2023-06-14T13:19:35;5.10;;;2.53;;
21777;SDS011;11050;52.222;20.916;2023-06-14T13:22:00;7.55;;;2.55;;
21777;SDS011;11050;52.222;20.916;2023-06-14T13:24:27;4.20;;;2.65;;
21777;SDS011;11050;52.222;20.916;2023-06-14T13:26:54;9.32;;;2.60;;
21777;SDS011;11050;52.222;20.916;2023-06-14T13:29:20;4.50;;;2.42;;
21777;SDS011;11050;52.222;20.916;2023-06-14T13:31:46;5.22;;;2.80;;
21777;SDS011;11050;52.222;20.916;2023-06-14T13:34:11;6.05;;;2.67;;
21777;SDS011;11050;52.222;20.916;2023-06-14T13:36:37;2.90;;;2.42;;
21777;SDS011;11050;52.222;20.916;2023-06-14T13:39:04;3.08;;;2.13;;
21777;SDS011;11050;52.222;20.916;2023-06-14T13:41:29;4.05;;;2.70;;
21777;SDS011;11050;52.222;20.916;2023-06-14T13:43:58;5.78;;;2.90;;
21777;SDS011;11050;52.222;20.916;2023-06-14T13:46:25;3.40;;;2.70;;
21777;SDS011;11050;52.222;20.916;2023-06-14T13:48:51;3.97;;;2.78;;
21777;SDS011;11050;52.222;20.916;2023-06-14T13:51:17;6.50;;;3.10;;
21777;SDS011;11050;52.222;20.916;2023-06-14T13:53:47;3.28;;;2.60;;
21777;SDS011;11050;52.222;20.916;2023-06-14T13:56:14;3.25;;;2.80;;
21777;SDS011;11050;52.222;20.916;2023-06-14T13:58:40;5.97;;;2.75;;
21777;SDS011;11050;52.222;20.916;2023-06-14T14:01:07;5.10;;;2.83;;
21777;SDS011;11050;52.222;20.916;2023-06-14T14:03:34;4.68;;;2.85;;
21777;SDS011;11050;52.222;20.916;2023-06-14T14:06:01;5.10;;;3.65;;
21777;SDS011;11050;52.222;20.916;2023-06-14T14:08:28;5.10;;;3.50;;
21777;SDS011;11050;52.222;20.916;2023-06-14T14:10:54;8.10;;;3.70;;
21777;SDS011;11050;52.222;20.916;2023-06-14T14:13:20;5.50;;;3.92;;
21777;SDS011;11050;52.222;20.916;2023-06-14T14:15:47;4.38;;;3.90;;
21777;SDS011;11050;52.222;20.916;2023-06-14T14:18:14;7.45;;;3.70;;
21777;SDS011;11050;52.222;20.916;2023-06-14T14:20:40;5.25;;;4.13;;
21777;SDS011;11050;52.222;20.916;2023-06-14T14:23:06;4.88;;;3.28;;
21777;SDS011;11050;52.222;20.916;2023-06-14T14:25:31;4.15;;;3.38;;
21777;SDS011;11050;52.222;20.916;2023-06-14T14:27:57;9.57;;;3.38;;
21777;SDS011;11050;52.222;20.916;2023-06-14T14:30:23;5.53;;;2.90;;
21777;SDS011;11050;52.222;20.916;2023-06-14T14:32:51;4.35;;;3.47;;
21777;SDS011;11050;52.222;20.916;2023-06-14T14:35:17;5.97;;;3.28;;
21777;SDS011;11050;52.222;20.916;2023-06-14T14:37:43;4.95;;;3.35;;
21777;SDS011;11050;52.222;20.916;2023-06-14T14:40:10;6.18;;;3.67;;